sensor_id;sensor_type;location;lat;lon;timestamp;pressure;altitude;pressure_sealevel;temperature;humidity
77871;BME280;67067;46.850;7.578;2023-02-24T00:00:21;94805.16;;;4.05;56.68
77871;BME280;67067;46.850;7.578;2023-02-24T00:01:50;94799.59;;;4.02;56.85
77871;BME280;67067;46.850;7.578;2023-02-24T00:02:51;94799.78;;;4.00;57.02
77871;BME280;67067;46.850;7.578;2023-02-24T00:04:01;94801.63;;;3.99;57.20
77871;BME280;67067;46.850;7.578;2023-02-24T00:05:01;94797.41;;;3.98;57.07
77871;BME280;67067;46.850;7.578;2023-02-24T00:06:04;94798.19;;;3.99;57.08
77871;BME280;67067;46.850;7.578;2023-02-24T00:07:11;94799.78;;;4.00;57.14
77871;BME280;67067;46.850;7.578;2023-02-24T00:08:16;94803.44;;;3.99;57.57
77871;BME280;67067;46.850;7.578;2023-02-24T00:09:21;94802.84;;;3.97;57.79
77871;BME280;67067;46.850;7.578;2023-02-24T00:10:22;94800.66;;;3.94;57.83
77871;BME280;67067;46.850;7.578;2023-02-24T00:11:22;94795.88;;;3.91;57.84
77871;BME280;67067;46.850;7.578;2023-02-24T00:12:23;94789.84;;;3.90;58.09
77871;BME280;67067;46.850;7.578;2023-02-24T00:13:24;94789.44;;;3.87;58.54
77871;BME280;67067;46.850;7.578;2023-02-24T00:14:27;94789.44;;;3.87;58.36
77871;BME280;67067;46.850;7.578;2023-02-24T00:15:28;94788.44;;;3.88;58.49
77871;BME280;67067;46.850;7.578;2023-02-24T00:16:36;94787.41;;;3.89;58.35
77871;BME280;67067;46.850;7.578;2023-02-24T00:17:40;94787.00;;;3.92;58.45
77871;BME280;67067;46.850;7.578;2023-02-24T00:18:41;94790.19;;;3.94;58.20
77871;BME280;67067;46.850;7.578;2023-02-24T00:19:41;94787.00;;;3.92;58.33
77871;BME280;67067;46.850;7.578;2023-02-24T00:20:42;94781.31;;;3.95;58.06
77871;BME280;67067;46.850;7.578;2023-02-24T00:21:43;94788.59;;;3.93;58.26
77871;BME280;67067;46.850;7.578;2023-02-24T00:22:43;94780.75;;;3.93;57.93
77871;BME280;67067;46.850;7.578;2023-02-24T00:23:46;94780.75;;;3.93;57.59
77871;BME280;67067;46.850;7.578;2023-02-24T00:24:47;94786.22;;;3.91;57.54
77871;BME280;67067;46.850;7.578;2023-02-24T00:25:48;94776.53;;;3.92;57.77
77871;BME280;67067;46.850;7.578;2023-02-24T00:26:53;94777.75;;;3.89;57.25
77871;BME280;67067;46.850;7.578;2023-02-24T00:27:56;94775.34;;;3.88;57.61
77871;BME280;67067;46.850;7.578;2023-02-24T00:29:03;94776.34;;;3.87;57.31
77871;BME280;67067;46.850;7.578;2023-02-24T00:30:05;94777.16;;;3.87;57.53
77871;BME280;67067;46.850;7.578;2023-02-24T00:31:09;94778.41;;;3.84;57.50
77871;BME280;67067;46.850;7.578;2023-02-24T00:32:15;94771.34;;;3.85;57.47
77871;BME280;67067;46.850;7.578;2023-02-24T00:33:16;94773.75;;;3.87;57.33
77871;BME280;67067;46.850;7.578;2023-02-24T00:34:21;94776.59;;;3.85;57.10
77871;BME280;67067;46.850;7.578;2023-02-24T00:35:24;94781.00;;;3.84;57.07
77871;BME280;67067;46.850;7.578;2023-02-24T00:36:29;94786.03;;;3.86;57.01
77871;BME280;67067;46.850;7.578;2023-02-24T00:37:29;94779.41;;;3.83;56.80
77871;BME280;67067;46.850;7.578;2023-02-24T00:38:35;94778.63;;;3.83;56.95
77871;BME280;67067;46.850;7.578;2023-02-24T00:39:36;94779.00;;;3.68;57.52
77871;BME280;67067;46.850;7.578;2023-02-24T00:40:40;94781.09;;;3.78;57.36
77871;BME280;67067;46.850;7.578;2023-02-24T00:41:44;94778.13;;;3.74;56.99
77871;BME280;67067;46.850;7.578;2023-02-24T00:42:48;94783.34;;;3.74;57.36
77871;BME280;67067;46.850;7.578;2023-02-24T00:43:50;94774.91;;;3.72;57.22
77871;BME280;67067;46.850;7.578;2023-02-24T00:44:50;94770.47;;;3.73;56.93
77871;BME280;67067;46.850;7.578;2023-02-24T00:45:53;94778.41;;;3.66;57.12
77871;BME280;67067;46.850;7.578;2023-02-24T00:46:54;94785.44;;;3.65;57.04
77871;BME280;67067;46.850;7.578;2023-02-24T00:47:54;94777.25;;;3.62;57.20
77871;BME280;67067;46.850;7.578;2023-02-24T00:49:01;94783.94;;;3.58;57.05
77871;BME280;67067;46.850;7.578;2023-02-24T00:50:05;94779.72;;;3.57;57.12
77871;BME280;67067;46.850;7.578;2023-02-24T00:51:12;94775.72;;;3.54;57.00
77871;BME280;67067;46.850;7.578;2023-02-24T00:52:18;94782.19;;;3.51;57.10
77871;BME280;67067;46.850;7.578;2023-02-24T00:53:19;94776.16;;;3.51;56.74
77871;BME280;67067;46.850;7.578;2023-02-24T00:54:19;94774.78;;;3.48;57.21
77871;BME280;67067;46.850;7.578;2023-02-24T00:55:26;94772.59;;;3.45;57.25
77871;BME280;67067;46.850;7.578;2023-02-24T00:56:35;94779.44;;;3.46;57.23
77871;BME280;67067;46.850;7.578;2023-02-24T00:57:39;94774.59;;;3.43;57.21
77871;BME280;67067;46.850;7.578;2023-02-24T00:58:41;94771.63;;;3.39;57.31
77871;BME280;67067;46.850;7.578;2023-02-24T00:59:43;94778.66;;;3.39;57.15
77871;BME280;67067;46.850;7.578;2023-02-24T01:00:46;94780.94;;;3.35;57.29
77871;BME280;67067;46.850;7.578;2023-02-24T01:01:47;94775.91;;;3.34;57.45
77871;BME280;67067;46.850;7.578;2023-02-24T01:02:49;94778.16;;;3.30;57.57
77871;BME280;67067;46.850;7.578;2023-02-24T01:03:53;94777.94;;;3.32;57.22
77871;BME280;67067;46.850;7.578;2023-02-24T01:04:56;94785.19;;;3.30;57.39
77871;BME280;67067;46.850;7.578;2023-02-24T01:06:01;94786.44;;;3.27;57.29
77871;BME280;67067;46.850;7.578;2023-02-24T01:07:06;94785.06;;;3.24;57.54
77871;BME280;67067;46.850;7.578;2023-02-24T01:08:10;94779.47;;;3.21;57.86
77871;BME280;67067;46.850;7.578;2023-02-24T01:09:18;94784.47;;;3.22;57.84
77871;BME280;67067;46.850;7.578;2023-02-24T01:10:19;94782.66;;;3.23;58.08
77871;BME280;67067;46.850;7.578;2023-02-24T01:11:24;94787.66;;;3.24;58.01
77871;BME280;67067;46.850;7.578;2023-02-24T01:12:44;94780.47;;;3.20;57.78
77871;BME280;67067;46.850;7.578;2023-02-24T01:13:53;94776.28;;;3.19;57.99
77871;BME280;67067;46.850;7.578;2023-02-24T01:14:56;94778.88;;;3.19;58.11
77871;BME280;67067;46.850;7.578;2023-02-24T01:15:59;94776.69;;;3.16;58.45
77871;BME280;67067;46.850;7.578;2023-02-24T01:17:02;94773.50;;;3.14;58.61
77871;BME280;67067;46.850;7.578;2023-02-24T01:18:05;94772.91;;;3.11;58.48
77871;BME280;67067;46.850;7.578;2023-02-24T01:19:07;94765.28;;;3.10;58.62
77871;BME280;67067;46.850;7.578;2023-02-24T01:20:09;94776.50;;;3.10;58.67
77871;BME280;67067;46.850;7.578;2023-02-24T01:21:19;94769.09;;;3.07;58.57
77871;BME280;67067;46.850;7.578;2023-02-24T01:22:22;94773.31;;;3.08;58.59
77871;BME280;67067;46.850;7.578;2023-02-24T01:23:23;94771.13;;;3.05;58.84
77871;BME280;67067;46.850;7.578;2023-02-24T01:24:24;94772.66;;;2.94;59.01
77871;BME280;67067;46.850;7.578;2023-02-24T01:25:25;94768.94;;;3.02;58.86
77871;BME280;67067;46.850;7.578;2023-02-24T01:26:27;94769.75;;;3.03;58.67
77871;BME280;67067;46.850;7.578;2023-02-24T01:27:30;94778.19;;;3.05;58.77
77871;BME280;67067;46.850;7.578;2023-02-24T01:28:30;94777.75;;;3.08;58.52
77871;BME280;67067;46.850;7.578;2023-02-24T01:29:31;94781.41;;;3.07;58.11
77871;BME280;67067;46.850;7.578;2023-02-24T01:30:32;94774.56;;;3.06;58.45
77871;BME280;67067;46.850;7.578;2023-02-24T01:31:33;94773.16;;;3.03;58.31
77871;BME280;67067;46.850;7.578;2023-02-24T01:32:33;94777.97;;;3.06;58.22
77871;BME280;67067;46.850;7.578;2023-02-24T01:33:34;94775.19;;;3.01;57.94
77871;BME280;67067;46.850;7.578;2023-02-24T01:34:38;94781.06;;;2.96;57.95
77871;BME280;67067;46.850;7.578;2023-02-24T01:35:41;94773.66;;;2.93;57.67
77871;BME280;67067;46.850;7.578;2023-02-24T01:36:42;94774.69;;;2.92;57.62
77871;BME280;67067;46.850;7.578;2023-02-24T01:37:43;94781.94;;;2.90;57.28
77871;BME280;67067;46.850;7.578;2023-02-24T01:38:45;94777.91;;;2.88;57.39
77871;BME280;67067;46.850;7.578;2023-02-24T01:39:47;94775.53;;;2.86;57.37
77871;BME280;67067;46.850;7.578;2023-02-24T01:40:57;94774.38;;;2.82;57.37
77871;BME280;67067;46.850;7.578;2023-02-24T01:41:58;94775.97;;;2.83;57.63
77871;BME280;67067;46.850;7.578;2023-02-24T01:43:04;94778.34;;;2.85;57.41
77871;BME280;67067;46.850;7.578;2023-02-24T01:45:19;94775.97;;;2.83;57.43
77871;BME280;67067;46.850;7.578;2023-02-24T01:46:36;94771.16;;;2.80;57.69
77871;BME280;67067;46.850;7.578;2023-02-24T01:47:38;94775.75;;;2.85;57.64
77871;BME280;67067;46.850;7.578;2023-02-24T01:48:40;94775.63;;;2.73;58.06
77871;BME280;67067;46.850;7.578;2023-02-24T01:49:43;94775.19;;;2.76;57.72
77871;BME280;67067;46.850;7.578;2023-02-24T01:50:44;94776.00;;;2.76;57.76
77871;BME280;67067;46.850;7.578;2023-02-24T01:51:58;94776.03;;;2.70;57.50
77871;BME280;67067;46.850;7.578;2023-02-24T01:53:05;94775.19;;;2.76;57.52
77871;BME280;67067;46.850;7.578;2023-02-24T01:54:10;94773.19;;;2.78;57.36
77871;BME280;67067;46.850;7.578;2023-02-24T01:55:17;94775.56;;;2.79;57.43
77871;BME280;67067;46.850;7.578;2023-02-24T01:56:19;94769.56;;;2.79;57.60
77871;BME280;67067;46.850;7.578;2023-02-24T01:57:22;94774.38;;;2.82;57.42
77871;BME280;67067;46.850;7.578;2023-02-24T01:58:27;94780.75;;;2.86;57.67
77871;BME280;67067;46.850;7.578;2023-02-24T01:59:29;94772.50;;;2.89;57.77
77871;BME280;67067;46.850;7.578;2023-02-24T02:00:31;94779.91;;;2.92;57.73
77871;BME280;67067;46.850;7.578;2023-02-24T02:01:38;94776.88;;;2.95;58.00
77871;BME280;67067;46.850;7.578;2023-02-24T02:02:44;94778.03;;;3.00;57.91
77871;BME280;67067;46.850;7.578;2023-02-24T02:03:47;94768.94;;;3.02;57.98
77871;BME280;67067;46.850;7.578;2023-02-24T02:04:50;94773.16;;;3.03;57.88
77871;BME280;67067;46.850;7.578;2023-02-24T02:05:58;94775.16;;;3.08;57.76
77871;BME280;67067;46.850;7.578;2023-02-24T02:07:00;94773.69;;;3.12;57.69
77871;BME280;67067;46.850;7.578;2023-02-24T02:08:05;94769.28;;;3.13;57.71
77871;BME280;67067;46.850;7.578;2023-02-24T02:09:10;94768.91;;;3.09;57.50
77871;BME280;67067;46.850;7.578;2023-02-24T02:10:13;94772.91;;;3.11;57.53
77871;BME280;67067;46.850;7.578;2023-02-24T02:11:15;94772.69;;;3.13;57.28
77871;BME280;67067;46.850;7.578;2023-02-24T02:12:26;94770.66;;;3.15;57.39
77871;BME280;67067;46.850;7.578;2023-02-24T02:13:30;94767.59;;;3.18;57.43
77871;BME280;67067;46.850;7.578;2023-02-24T02:14:36;94763.78;;;3.21;57.01
77871;BME280;67067;46.850;7.578;2023-02-24T02:15:51;94761.16;;;3.21;57.42
77871;BME280;67067;46.850;7.578;2023-02-24T02:24:28;94760.94;;;3.22;57.17
77871;BME280;67067;46.850;7.578;2023-02-24T02:34:55;94764.84;;;3.13;56.99
77871;BME280;67067;46.850;7.578;2023-02-24T02:38:01;94767.59;;;3.18;57.18
77871;BME280;67067;46.850;7.578;2023-02-24T02:39:12;94763.19;;;3.19;57.49
77871;BME280;67067;46.850;7.578;2023-02-24T02:40:35;94766.00;;;3.17;57.76
77871;BME280;67067;46.850;7.578;2023-02-24T02:41:51;94764.72;;;3.26;57.79
77871;BME280;67067;46.850;7.578;2023-02-24T02:42:59;94764.28;;;3.30;57.85
77871;BME280;67067;46.850;7.578;2023-02-24T02:44:09;94761.81;;;3.35;57.60
77871;BME280;67067;46.850;7.578;2023-02-24T02:45:18;94765.00;;;3.37;57.37
77871;BME280;67067;46.850;7.578;2023-02-24T02:46:52;94763.41;;;3.36;57.54
77871;BME280;67067;46.850;7.578;2023-02-24T02:47:52;94764.56;;;3.40;57.36
77871;BME280;67067;46.850;7.578;2023-02-24T02:48:57;94759.13;;;3.41;57.52
77871;BME280;67067;46.850;7.578;2023-02-24T02:50:14;94756.50;;;3.41;57.26
77871;BME280;67067;46.850;7.578;2023-02-24T02:51:21;94755.28;;;3.44;57.19
77871;BME280;67067;46.850;7.578;2023-02-24T02:52:31;94749.25;;;3.44;57.30
77871;BME280;67067;46.850;7.578;2023-02-24T02:53:47;94751.06;;;3.43;57.40
77871;BME280;67067;46.850;7.578;2023-02-24T02:54:57;94755.44;;;3.49;57.39
77871;BME280;67067;46.850;7.578;2023-02-24T02:56:08;94753.25;;;3.46;57.28
77871;BME280;67067;46.850;7.578;2023-02-24T02:57:21;94749.63;;;3.47;57.51
77871;BME280;67067;46.850;7.578;2023-02-24T02:58:28;94753.59;;;3.50;57.33
77871;BME280;67067;46.850;7.578;2023-02-24T02:59:31;94749.78;;;3.52;57.27
77871;BME280;67067;46.850;7.578;2023-02-24T03:00:39;94749.78;;;3.52;57.08
77871;BME280;67067;46.850;7.578;2023-02-24T03:01:42;94747.72;;;3.54;57.17
77871;BME280;67067;46.850;7.578;2023-02-24T03:02:49;94756.75;;;3.59;57.44
77871;BME280;67067;46.850;7.578;2023-02-24T03:03:57;94746.84;;;3.61;57.18
77871;BME280;67067;46.850;7.578;2023-02-24T03:05:01;94744.25;;;3.61;57.11
77871;BME280;67067;46.850;7.578;2023-02-24T03:06:08;94740.81;;;3.60;57.16
77871;BME280;67067;46.850;7.578;2023-02-24T03:07:12;94751.50;;;3.59;57.19
77871;BME280;67067;46.850;7.578;2023-02-24T03:08:21;94748.66;;;3.60;57.37
77871;BME280;67067;46.850;7.578;2023-02-24T03:09:30;94749.91;;;3.58;57.38
77871;BME280;67067;46.850;7.578;2023-02-24T03:10:31;94746.28;;;3.59;57.46
77871;BME280;67067;46.850;7.578;2023-02-24T03:11:33;94752.25;;;3.47;57.43
77871;BME280;67067;46.850;7.578;2023-02-24T03:12:34;94753.09;;;3.60;56.99
77871;BME280;67067;46.850;7.578;2023-02-24T03:13:41;94750.69;;;3.58;56.87
77871;BME280;67067;46.850;7.578;2023-02-24T03:14:51;94753.09;;;3.60;56.59
77871;BME280;67067;46.850;7.578;2023-02-24T03:15:53;94742.66;;;3.60;57.15
77871;BME280;67067;46.850;7.578;2023-02-24T03:16:57;94744.25;;;3.61;57.17
77871;BME280;67067;46.850;7.578;2023-02-24T03:18:07;94742.50;;;3.54;57.02
77871;BME280;67067;46.850;7.578;2023-02-24T03:19:13;94743.09;;;3.57;57.26
77871;BME280;67067;46.850;7.578;2023-02-24T03:20:23;94736.69;;;3.52;57.53
77871;BME280;67067;46.850;7.578;2023-02-24T03:21:33;94745.91;;;3.55;57.48
77871;BME280;67067;46.850;7.578;2023-02-24T03:23:02;94743.09;;;3.57;57.79
77871;BME280;67067;46.850;7.578;2023-02-24T03:24:02;94743.66;;;3.59;57.50
77871;BME280;67067;46.850;7.578;2023-02-24T03:25:08;94743.81;;;3.64;57.38
77871;BME280;67067;46.850;7.578;2023-02-24T03:26:23;94740.03;;;3.60;57.69
77871;BME280;67067;46.850;7.578;2023-02-24T03:27:35;94742.19;;;3.63;57.34
77871;BME280;67067;46.850;7.578;2023-02-24T03:29:13;94751.06;;;3.62;57.48
77871;BME280;67067;46.850;7.578;2023-02-24T03:30:15;94742.41;;;3.61;57.13
77871;BME280;67067;46.850;7.578;2023-02-24T03:31:22;94747.44;;;3.63;57.30
77871;BME280;67067;46.850;7.578;2023-02-24T03:32:30;94741.97;;;3.64;57.58
77871;BME280;67067;46.850;7.578;2023-02-24T03:33:41;94744.25;;;3.61;57.37
77871;BME280;67067;46.850;7.578;2023-02-24T03:35:08;94745.47;;;3.58;57.55
77871;BME280;67067;46.850;7.578;2023-02-24T03:36:12;94745.41;;;3.65;57.30
77871;BME280;67067;46.850;7.578;2023-02-24T03:37:15;94744.38;;;3.66;57.40
77871;BME280;67067;46.850;7.578;2023-02-24T03:38:16;94741.69;;;3.54;57.60
77871;BME280;67067;46.850;7.578;2023-02-24T03:39:17;94748.59;;;3.67;57.48
77871;BME280;67067;46.850;7.578;2023-02-24T03:40:30;94744.69;;;3.58;57.40
77871;BME280;67067;46.850;7.578;2023-02-24T03:41:43;94744.38;;;3.66;57.17
77871;BME280;67067;46.850;7.578;2023-02-24T03:42:52;94743.94;;;3.69;57.40
77871;BME280;67067;46.850;7.578;2023-02-24T03:43:57;94739.72;;;3.68;57.14
77871;BME280;67067;46.850;7.578;2023-02-24T03:45:00;94737.69;;;3.70;57.43
77871;BME280;67067;46.850;7.578;2023-02-24T03:46:03;94737.69;;;3.70;57.31
77871;BME280;67067;46.850;7.578;2023-02-24T03:47:04;94732.44;;;3.70;57.23
77871;BME280;67067;46.850;7.578;2023-02-24T03:48:09;94741.09;;;3.70;57.17
77871;BME280;67067;46.850;7.578;2023-02-24T03:49:12;94738.25;;;3.72;57.51
77871;BME280;67067;46.850;7.578;2023-02-24T03:50:19;94734.25;;;3.69;57.40
77871;BME280;67067;46.850;7.578;2023-02-24T03:51:27;94735.66;;;3.72;57.44
77871;BME280;67067;46.850;7.578;2023-02-24T03:52:37;94729.41;;;3.73;57.54
77871;BME280;67067;46.850;7.578;2023-02-24T03:59:16;94733.34;;;3.64;57.50
77871;BME280;67067;46.850;7.578;2023-02-24T04:00:30;94731.63;;;3.69;57.45
77871;BME280;67067;46.850;7.578;2023-02-24T04:02:38;94726.19;;;3.71;57.41
77871;BME280;67067;46.850;7.578;2023-02-24T04:05:20;94729.31;;;3.61;57.65
77871;BME280;67067;46.850;7.578;2023-02-24T04:06:49;94726.72;;;3.61;57.64
77871;BME280;67067;46.850;7.578;2023-02-24T04:07:58;94725.47;;;3.64;57.28
77871;BME280;67067;46.850;7.578;2023-02-24T04:09:43;94728.97;;;3.58;57.54
77871;BME280;67067;46.850;7.578;2023-02-24T04:11:00;94725.78;;;3.55;57.27
77871;BME280;67067;46.850;7.578;2023-02-24T04:15:29;94725.06;;;3.48;57.17
77871;BME280;67067;46.850;7.578;2023-02-24T04:16:37;94731.56;;;3.39;56.71
77871;BME280;67067;46.850;7.578;2023-02-24T04:17:45;94726.63;;;3.31;56.80
77871;BME280;67067;46.850;7.578;2023-02-24T04:18:50;94728.53;;;3.23;57.11
77871;BME280;67067;46.850;7.578;2023-02-24T04:19:58;94724.16;;;3.17;56.98
77871;BME280;67067;46.850;7.578;2023-02-24T04:21:03;94726.44;;;3.14;57.18
77871;BME280;67067;46.850;7.578;2023-02-24T04:22:09;94725.22;;;3.09;57.22
77871;BME280;67067;46.850;7.578;2023-02-24T04:23:14;94719.66;;;3.06;57.20
77871;BME280;67067;46.850;7.578;2023-02-24T04:24:20;94719.84;;;3.04;57.40
77871;BME280;67067;46.850;7.578;2023-02-24T04:25:25;94711.06;;;2.99;57.54
77871;BME280;67067;46.850;7.578;2023-02-24T04:26:28;94716.28;;;2.99;57.40
77871;BME280;67067;46.850;7.578;2023-02-24T04:27:30;94716.28;;;2.99;57.65
77871;BME280;67067;46.850;7.578;2023-02-24T04:28:46;94715.72;;;2.96;57.51
77871;BME280;67067;46.850;7.578;2023-02-24T04:29:55;94713.31;;;2.95;57.29
77871;BME280;67067;46.850;7.578;2023-02-24T04:31:02;94712.28;;;2.96;57.67
77871;BME280;67067;46.850;7.578;2023-02-24T04:32:08;94710.06;;;3.00;57.40
77871;BME280;67067;46.850;7.578;2023-02-24T04:33:12;94711.28;;;2.97;57.63
77871;BME280;67067;46.850;7.578;2023-02-24T04:34:16;94707.44;;;3.00;57.37
77871;BME280;67067;46.850;7.578;2023-02-24T04:35:20;94709.47;;;2.97;57.37
77871;BME280;67067;46.850;7.578;2023-02-24T04:36:26;94701.03;;;2.95;57.64
77871;BME280;67067;46.850;7.578;2023-02-24T04:37:29;94698.63;;;2.94;57.33
77871;BME280;67067;46.850;7.578;2023-02-24T04:38:34;94696.00;;;2.94;57.30
77871;BME280;67067;46.850;7.578;2023-02-24T04:39:35;94696.84;;;2.94;57.05
77871;BME280;67067;46.850;7.578;2023-02-24T04:40:44;94699.44;;;2.94;57.24
77871;BME280;67067;46.850;7.578;2023-02-24T04:41:47;94692.63;;;2.93;57.10
77871;BME280;67067;46.850;7.578;2023-02-24T04:42:50;94686.56;;;2.93;57.30
77871;BME280;67067;46.850;7.578;2023-02-24T04:43:51;94687.59;;;2.92;57.19
77871;BME280;67067;46.850;7.578;2023-02-24T04:44:53;94687.59;;;2.92;57.37
77871;BME280;67067;46.850;7.578;2023-02-24T04:45:57;94686.56;;;2.93;57.46
77871;BME280;67067;46.850;7.578;2023-02-24T04:46:58;94685.78;;;2.92;57.43
77871;BME280;67067;46.850;7.578;2023-02-24T04:48:01;94682.59;;;2.90;57.38
77871;BME280;67067;46.850;7.578;2023-02-24T04:49:02;94683.59;;;2.89;57.19
77871;BME280;67067;46.850;7.578;2023-02-24T04:50:03;94680.19;;;2.89;57.01
77871;BME280;67067;46.850;7.578;2023-02-24T04:51:06;94683.03;;;2.87;57.00
77871;BME280;67067;46.850;7.578;2023-02-24T04:52:07;94677.78;;;2.87;57.04
77871;BME280;67067;46.850;7.578;2023-02-24T04:53:13;94678.00;;;2.86;57.38
77871;BME280;67067;46.850;7.578;2023-02-24T04:54:18;94682.66;;;2.83;57.32
77871;BME280;67067;46.850;7.578;2023-02-24T04:55:25;94683.50;;;2.77;57.42
77871;BME280;67067;46.850;7.578;2023-02-24T04:56:28;94679.28;;;2.76;57.21
77871;BME280;67067;46.850;7.578;2023-02-24T04:57:29;94675.50;;;2.72;57.20
77871;BME280;67067;46.850;7.578;2023-02-24T04:58:29;94682.78;;;2.70;57.37
77871;BME280;67067;46.850;7.578;2023-02-24T04:59:30;94680.34;;;2.68;57.12
77871;BME280;67067;46.850;7.578;2023-02-24T05:00:31;94680.00;;;2.65;57.33
77871;BME280;67067;46.850;7.578;2023-02-24T05:01:39;94678.25;;;2.59;57.22
77871;BME280;67067;46.850;7.578;2023-02-24T05:02:40;94675.63;;;2.59;57.40
77871;BME280;67067;46.850;7.578;2023-02-24T05:03:41;94673.66;;;2.54;57.49
77871;BME280;67067;46.850;7.578;2023-02-24T05:04:44;94678.28;;;2.52;57.28
77871;BME280;67067;46.850;7.578;2023-02-24T05:05:53;94676.69;;;2.51;57.55
77871;BME280;67067;46.850;7.578;2023-02-24T05:06:59;94681.75;;;2.46;57.49
77871;BME280;67067;46.850;7.578;2023-02-24T05:08:03;94676.53;;;2.46;57.65
77871;BME280;67067;46.850;7.578;2023-02-24T05:09:07;94676.53;;;2.46;57.46
77871;BME280;67067;46.850;7.578;2023-02-24T05:10:14;94680.16;;;2.45;57.41
77871;BME280;67067;46.850;7.578;2023-02-24T05:11:15;94681.16;;;2.44;57.63
77871;BME280;67067;46.850;7.578;2023-02-24T05:12:17;94675.13;;;2.43;57.42
77871;BME280;67067;46.850;7.578;2023-02-24T05:13:21;94671.00;;;2.35;57.79
77871;BME280;67067;46.850;7.578;2023-02-24T05:14:26;94672.16;;;2.39;57.66
77871;BME280;67067;46.850;7.578;2023-02-24T05:15:27;94670.13;;;2.42;57.57
77871;BME280;67067;46.850;7.578;2023-02-24T05:16:34;94675.38;;;2.42;57.70
77871;BME280;67067;46.850;7.578;2023-02-24T05:17:34;94673.75;;;2.41;57.60
77871;BME280;67067;46.850;7.578;2023-02-24T05:18:35;94668.53;;;2.41;57.48
77871;BME280;67067;46.850;7.578;2023-02-24T05:19:36;94672.75;;;2.42;57.58
77871;BME280;67067;46.850;7.578;2023-02-24T05:20:55;94665.69;;;2.42;57.71
77871;BME280;67067;46.850;7.578;2023-02-24T05:22:15;94664.31;;;2.39;57.80
77871;BME280;67067;46.850;7.578;2023-02-24T05:23:16;94658.19;;;2.27;57.91
77871;BME280;67067;46.850;7.578;2023-02-24T05:24:17;94653.34;;;2.31;58.10
77871;BME280;67067;46.850;7.578;2023-02-24T05:25:20;94655.75;;;2.32;58.15
77871;BME280;67067;46.850;7.578;2023-02-24T05:26:21;94651.31;;;2.33;57.97
77871;BME280;67067;46.850;7.578;2023-02-24T05:27:24;94642.09;;;2.30;58.19
77871;BME280;67067;46.850;7.578;2023-02-24T05:28:27;94641.28;;;2.30;58.01
77871;BME280;67067;46.850;7.578;2023-02-24T05:29:34;94635.72;;;2.26;58.44
77871;BME280;67067;46.850;7.578;2023-02-24T05:33:06;94643.81;;;2.18;58.70
77871;BME280;67067;46.850;7.578;2023-02-24T05:34:07;94645.41;;;2.19;58.67
77871;BME280;67067;46.850;7.578;2023-02-24T05:35:08;94637.72;;;2.24;58.46
77871;BME280;67067;46.850;7.578;2023-02-24T05:36:13;94645.34;;;2.26;58.62
77871;BME280;67067;46.850;7.578;2023-02-24T05:37:19;94638.31;;;2.26;58.28
77871;BME280;67067;46.850;7.578;2023-02-24T05:38:19;94640.13;;;2.26;57.92
77871;BME280;67067;46.850;7.578;2023-02-24T05:39:22;94636.13;;;2.23;58.12
77871;BME280;67067;46.850;7.578;2023-02-24T05:40:28;94633.53;;;2.23;58.00
77871;BME280;67067;46.850;7.578;2023-02-24T05:41:28;94642.97;;;2.24;58.03
77871;BME280;67067;46.850;7.578;2023-02-24T05:42:36;94641.34;;;2.23;57.65
77871;BME280;67067;46.850;7.578;2023-02-24T05:43:36;94636.56;;;2.20;57.62
77871;BME280;67067;46.850;7.578;2023-02-24T05:44:38;94641.78;;;2.20;57.40
77871;BME280;67067;46.850;7.578;2023-02-24T05:45:39;94636.56;;;2.20;57.47
77871;BME280;67067;46.850;7.578;2023-02-24T05:46:44;94643.38;;;2.21;57.32
77871;BME280;67067;46.850;7.578;2023-02-24T05:47:45;94637.56;;;2.19;57.35
77871;BME280;67067;46.850;7.578;2023-02-24T05:48:49;94640.19;;;2.19;57.22
77871;BME280;67067;46.850;7.578;2023-02-24T05:49:50;94638.59;;;2.18;57.42
77871;BME280;67067;46.850;7.578;2023-02-24T05:50:53;94639.19;;;2.20;57.27
77871;BME280;67067;46.850;7.578;2023-02-24T05:51:56;94638.59;;;2.18;57.64
77871;BME280;67067;46.850;7.578;2023-02-24T05:52:57;94637.00;;;2.17;57.70
77871;BME280;67067;46.850;7.578;2023-02-24T05:53:57;94632.19;;;2.14;57.79
77871;BME280;67067;46.850;7.578;2023-02-24T05:54:58;94643.22;;;2.16;57.91
77871;BME280;67067;46.850;7.578;2023-02-24T05:56:09;94641.97;;;2.18;57.84
77871;BME280;67067;46.850;7.578;2023-02-24T05:57:15;94641.78;;;2.20;57.92
77871;BME280;67067;46.850;7.578;2023-02-24T05:58:18;94641.19;;;2.18;58.04
77871;BME280;67067;46.850;7.578;2023-02-24T05:59:18;94640.38;;;2.17;58.07
77871;BME280;67067;46.850;7.578;2023-02-24T06:00:21;94639.38;;;2.18;58.23
77871;BME280;67067;46.850;7.578;2023-02-24T06:01:25;94643.38;;;2.21;58.36
77871;BME280;67067;46.850;7.578;2023-02-24T06:02:29;94639.59;;;2.17;58.54
77871;BME280;67067;46.850;7.578;2023-02-24T06:03:36;94639.59;;;2.17;58.54
77871;BME280;67067;46.850;7.578;2023-02-24T06:04:39;94642.22;;;2.17;58.77
77871;BME280;67067;46.850;7.578;2023-02-24T06:05:52;94638.19;;;2.14;58.83
77871;BME280;67067;46.850;7.578;2023-02-24T06:06:53;94643.84;;;2.11;59.03
77871;BME280;67067;46.850;7.578;2023-02-24T06:07:55;94640.03;;;2.14;59.27
77871;BME280;67067;46.850;7.578;2023-02-24T06:09:04;94641.63;;;2.15;59.19
77871;BME280;67067;46.850;7.578;2023-02-24T06:10:11;94644.22;;;2.15;59.19
77871;BME280;67067;46.850;7.578;2023-02-24T06:11:18;94644.59;;;2.18;59.05
77871;BME280;67067;46.850;7.578;2023-02-24T06:12:21;94645.75;;;2.22;59.15
77871;BME280;67067;46.850;7.578;2023-02-24T06:13:24;94640.53;;;2.22;59.16
77871;BME280;67067;46.850;7.578;2023-02-24T06:14:25;94641.78;;;2.20;59.25
77871;BME280;67067;46.850;7.578;2023-02-24T06:15:30;94634.09;;;2.25;59.12
77871;BME280;67067;46.850;7.578;2023-02-24T06:16:33;94640.50;;;2.29;59.11
77871;BME280;67067;46.850;7.578;2023-02-24T06:17:33;94640.13;;;2.26;59.15
77871;BME280;67067;46.850;7.578;2023-02-24T06:18:34;94637.88;;;2.29;59.08
77871;BME280;67067;46.850;7.578;2023-02-24T06:19:35;94635.28;;;2.29;59.20
77871;BME280;67067;46.850;7.578;2023-02-24T06:20:35;94635.28;;;2.29;59.23
77871;BME280;67067;46.850;7.578;2023-02-24T06:21:38;94630.06;;;2.29;59.14
77871;BME280;67067;46.850;7.578;2023-02-24T06:22:40;94627.28;;;2.24;59.25
77871;BME280;67067;46.850;7.578;2023-02-24T06:23:43;94628.66;;;2.27;59.32